Weather at Napier Ranch Airport

Public forecast

Using degrees Fahrenheit for public forecast. Weather courtesy of forecast.io.

Closest aviation weather report (METAR) to Napier Ranch Airport

Closest report is Roseburg Regional Airport, 6.0 nm (11.1 km) E. Retrieved 2021/05/06 04:53 UTC (47 minutes ago):

KRBG 060453Z AUTO 33004KT 10SM CLR 20/04 A2989 RMK AO2 SLP119 T02000044

Closest aviation forecast (TAF) to Napier Ranch Airport

Closest forecast is Roseburg Regional Airport, 6.0 nm (11.1 km) E. Retrieved 2021-05-06 00:27 UTC (5 hours ago):

TAF KRBG 052325Z 0600/0624 36007KT P6SM SCT060 SCT250 FM060300 VRB03KT P6SM SCT250